Time;durP1;ratioP1;P1;durP2;ratioP2;P2;SDS_P1;SDS_P2;PMS_P1;PMS_P2;Temp;Humidity;BMP_temperature;BMP_pressure;BME280_temperature;BME280_humidity;BME280_pressure;Samples;Min_cycle;Max_cycle;Signal;HPM_P1;HPM_P2
2023/01/12 16:30:53;;;;;;;;;;;;;;;;;;;;;
2023/01/12 16:38:43;;;;;;;8.55;6.90;;;;;;;11.64;60.13;99881.22;2212189;88;25682;-79
2023/01/12 16:42:52;;;;;;;11.85;7.50;;;;;;;11.59;59.64;99882.48;2200784;87;25727;-79
2023/01/12 16:47:02;;;;;;;11.03;6.60;;;;;;;11.56;59.13;99870.69;2073727;92;25886;-80
2023/01/12 17:01:00;;;;;;;;;;;;;;;;;;;;;
2023/01/12 17:05:00;;;;;;;;;;;;;;;;;;;;;
2023/01/12 17:36:18;;;;;;;13.90;10.25;;;;;;;10.86;57.89;99857.63;1860102;103;25815;-83
2023/01/12 17:40:06;;;;;;;13.95;9.15;;;;;;;10.78;57.96;99859.27;1884343;102;25819;-80
2023/01/12 17:44:17;;;;;;;;;;;;;;;;;;;;;
2023/01/12 17:47:31;;;;;;;13.15;9.83;;;;;;;10.71;58.08;99837.00;1905297;100;25870;-79
2023/01/12 17:51:10;;;;;;;17.62;11.15;;;;;;;10.73;57.99;99840.09;1918746;100;25822;-79
2023/01/12 17:55:05;;;;;;;17.98;10.58;;;;;;;10.66;58.01;99829.09;1910591;99;25912;-80
2023/01/12 17:58:47;;;;;;;15.43;10.48;;;;;;;10.60;58.10;99833.81;2035114;94;25782;-83
2023/01/12 18:06:19;;;;;;;;;;;;;;;;;;;;;
2023/01/12 18:10:40;;;;;;;;;;;;;;;;;;;;;
2023/01/12 18:14:59;;;;;;;20.60;10.95;;;;;;;10.48;58.22;99826.23;2020807;96;25954;-81
2023/01/12 18:18:31;;;;;;;12.80;8.88;;;;;;;10.47;58.23;99827.09;2022054;95;25892;-82
2023/01/12 18:30:45;;;;;;;19.75;10.18;;;;;;;10.45;58.14;99822.27;1867543;105;25832;-85
2023/01/12 18:55:23;;;;;;;13.43;7.75;;;;;;;10.39;58.02;99790.47;1847136;104;25892;-83
2023/01/12 19:31:32;;;;;;;11.40;7.75;;;;;;;10.62;57.41;99776.47;1690180;114;26032;-79
2023/01/12 19:36:06;;;;;;;;;;;;;;;;;;;;;
2023/01/12 19:39:00;;;;;;;12.55;7.35;;;;;;;10.80;57.17;99773.22;1770768;107;25925;-79
2023/01/12 20:07:12;;;;;;;;;;;;;;;;;;;;;
2023/01/12 20:11:51;;;;;;;;;;;;;;;;;;;;;
2023/01/12 20:15:42;;;;;;;12.98;7.83;;;;;;;11.47;55.50;99767.91;1718970;111;26024;-89
2023/01/12 20:20:20;;;;;;;;;;;;;;;;;;;;;
2023/01/12 20:23:55;;;;;;;;;;;;;;;;;;;;;
2023/01/12 20:27:24;;;;;;;10.45;6.42;;;;;;;11.54;55.10;99769.72;1710756;110;26009;-80
2023/01/12 20:31:35;;;;;;;12.58;7.10;;;;;;;11.56;55.02;99777.16;1797598;106;26509;-83
2023/01/12 20:35:43;;;;;;;9.73;6.85;;;;;;;11.59;54.92;99773.27;1804440;105;26154;-85
2023/01/12 20:39:45;;;;;;;;;;;;;;;;;;;;;
2023/01/12 20:47:24;;;;;;;;;;;;;;;;;;;;;
2023/01/12 20:51:05;;;;;;;10.25;6.70;;;;;;;11.68;54.56;99768.14;1855033;103;26206;-79
2023/01/12 20:55:04;;;;;;;;;;;;;;;;;;;;;
2023/01/12 21:33:16;;;;;;;14.80;7.72;;;;;;;11.73;53.99;99737.70;1815064;107;26163;-76
2023/01/12 21:36:55;;;;;;;10.20;7.50;;;;;;;11.73;53.87;99732.92;1792261;106;25970;-77
2023/01/12 21:40:50;;;;;;;11.93;6.45;;;;;;;11.76;53.90;99735.13;1779984;108;26324;-78
2023/01/12 21:44:31;;;;;;;11.53;6.25;;;;;;;11.77;53.84;99733.38;1843307;104;25820;-78
2023/01/12 21:48:33;;;;;;;6.70;5.33;;;;;;;11.79;53.78;99726.45;1850215;105;25570;-77
2023/01/12 21:56:15;;;;;;;11.97;6.80;;;;;;;11.70;53.79;99713.31;1866494;104;25787;-77
2023/01/12 21:59:47;;;;;;;10.13;6.60;;;;;;;11.84;53.64;99737.83;1940443;100;25996;-77
2023/01/12 22:03:22;;;;;;;12.37;6.22;;;;;;;11.87;53.52;99736.55;1909195;101;25866;-76
2023/01/12 22:06:58;;;;;;;13.48;6.05;;;;;;;11.88;53.49;99730.89;1880458;102;25826;-76
2023/01/12 22:10:36;;;;;;;10.78;5.08;;;;;;;11.89;53.44;99724.82;1894898;102;25848;-77
2023/01/12 22:14:12;;;;;;;12.15;5.95;;;;;;;11.89;53.43;99727.00;1892990;102;25898;-77
2023/01/12 22:17:43;;;;;;;11.83;6.47;;;;;;;11.92;53.37;99727.02;1897931;100;25923;-77
2023/01/12 22:21:23;;;;;;;11.43;4.90;;;;;;;11.94;53.33;99723.10;1902152;100;26319;-76
2023/01/12 22:25:18;;;;;;;12.43;6.25;;;;;;;11.95;53.27;99719.22;1900977;100;25875;-79
2023/01/12 22:28:51;;;;;;;8.28;5.78;;;;;;;11.97;53.29;99713.98;1896600;102;25918;-78
2023/01/12 22:32:21;;;;;;;10.85;6.72;;;;;;;11.99;53.23;99710.53;1897662;100;25895;-78
2023/01/12 22:36:04;;;;;;;10.75;5.35;;;;;;;12.00;53.17;99719.23;1952068;99;25945;-77
2023/01/12 22:39:35;;;;;;;6.90;5.08;;;;;;;12.00;53.20;99709.66;1973548;97;26066;-77
2023/01/12 22:43:37;;;;;;;10.00;6.00;;;;;;;12.01;53.10;99706.61;2019406;96;25633;-77
2023/01/12 22:47:23;;;;;;;9.10;5.35;;;;;;;12.02;53.10;99696.63;2019496;95;25947;-77
2023/01/12 22:51:11;;;;;;;10.30;6.50;;;;;;;12.02;53.07;99686.17;2000576;96;25846;-78
2023/01/12 22:54:59;;;;;;;10.53;5.30;;;;;;;12.03;53.01;99691.39;2033083;94;25720;-78
2023/01/12 22:58:48;;;;;;;8.90;4.97;;;;;;;12.03;52.93;99680.95;2051141;93;25895;-78
2023/01/12 23:06:36;;;;;;;8.10;5.12;;;;;;;12.04;52.91;99676.15;1907508;101;25967;-78
2023/01/12 23:10:47;;;;;;;9.35;5.25;;;;;;;12.04;52.93;99687.03;1907324;101;25934;-77
2023/01/12 23:14:40;;;;;;;8.75;4.78;;;;;;;12.04;52.92;99689.21;1899301;101;26183;-77
2023/01/12 23:18:58;;;;;;;7.37;5.60;;;;;;;12.05;52.88;99693.59;1906001;99;25873;-77
2023/01/12 23:22:58;;;;;;;9.15;5.25;;;;;;;12.04;52.89;99683.98;1856887;103;25853;-78
2023/01/12 23:27:05;;;;;;;;;;;;;;;;;;;;;
2023/01/12 23:30:45;;;;;;;6.75;4.75;;;;;;;12.05;52.89;99696.64;1844142;104;25858;-76
2023/01/12 23:34:32;;;;;;;;;;;;;;;;;;;;;
2023/01/12 23:38:03;;;;;;;12.13;5.90;;;;;;;12.05;52.83;99687.50;1792130;107;25972;-78
2023/01/12 23:45:42;;;;;;;;;;;;;;;;;;;;;
2023/01/12 23:49:11;;;;;;;9.38;5.12;;;;;;;12.03;52.79;99691.39;1731960;110;25916;-78
2023/01/12 23:52:39;;;;;;;10.45;6.45;;;;;;;12.03;52.81;99686.61;1738799;113;25847;-77
